Time;durP1;ratioP1;P1;durP2;ratioP2;P2;SDS_P1;SDS_P2;PMS_P1;PMS_P2;Temp;Humidity;BMP_temperature;BMP_pressure;BME280_temperature;BME280_humidity;BME280_pressure;Samples;Min_cycle;Max_cycle;Signal;HPM_P1;HPM_P2
2021/10/09 00:01:56;;;;;;;18.20;9.85;;;;;;;6.48;100.00;99956.91;5114491;28;20464;-85
2021/10/09 00:04:23;;;;;;;19.05;9.23;;;;;;;6.43;100.00;99960.03;5114307;28;20058;-85
2021/10/09 00:06:53;;;;;;;19.75;8.85;;;;;;;6.45;100.00;99954.47;5114518;28;20043;-85
2021/10/09 00:09:23;;;;;;;20.00;9.75;;;;;;;6.48;100.00;99960.44;5114382;28;20083;-85
2021/10/09 00:11:50;;;;;;;19.00;9.48;;;;;;;6.36;100.00;99958.84;5114007;28;20142;-85
2021/10/09 00:14:17;;;;;;;15.98;9.48;;;;;;;6.22;100.00;99959.22;5105272;28;20043;-85
2021/10/09 00:16:46;;;;;;;19.85;10.82;;;;;;;6.35;100.00;99970.63;5114551;28;20066;-85
2021/10/09 00:19:17;;;;;;;20.42;11.55;;;;;;;6.32;100.00;99952.00;5113456;28;20043;-85
2021/10/09 00:21:45;;;;;;;23.25;11.38;;;;;;;6.28;100.00;99970.34;5114457;28;20075;-85
2021/10/09 00:24:15;;;;;;;20.30;11.50;;;;;;;6.38;100.00;99960.44;5112364;28;20036;-85
2021/10/09 00:26:45;;;;;;;22.42;11.80;;;;;;;6.24;100.00;99958.09;5114254;28;20052;-85
2021/10/09 00:29:12;;;;;;;20.00;11.40;;;;;;;6.31;100.00;99974.63;5114092;28;20051;-85
2021/10/09 00:31:42;;;;;;;26.10;11.70;;;;;;;6.28;100.00;99969.47;5114145;28;20044;-85
2021/10/09 00:34:09;;;;;;;20.90;11.32;;;;;;;6.06;100.00;99947.09;5112995;28;20135;-85
2021/10/09 00:36:36;;;;;;;18.48;10.15;;;;;;;6.17;100.00;99968.63;5113330;28;20092;-85
2021/10/09 00:39:04;;;;;;;17.15;9.90;;;;;;;6.17;100.00;99965.03;5113930;28;20058;-85
2021/10/09 00:41:31;;;;;;;19.80;10.85;;;;;;;6.08;100.00;99952.38;5113969;28;20051;-85
2021/10/09 00:44:10;;;;;;;20.00;10.73;;;;;;;6.13;100.00;99960.94;5113646;28;20055;-85
2021/10/09 00:46:38;;;;;;;16.63;9.48;;;;;;;5.89;100.00;99936.94;5113789;28;20047;-85
2021/10/09 00:49:06;;;;;;;21.20;10.70;;;;;;;6.09;100.00;99957.63;5101070;28;20051;-85
2021/10/09 00:51:33;;;;;;;17.80;10.43;;;;;;;5.99;100.00;99964.84;5113912;28;20392;-85
2021/10/09 00:54:02;;;;;;;19.25;10.63;;;;;;;5.95;100.00;99939.09;5113248;28;20097;-85
2021/10/09 00:56:32;;;;;;;18.25;10.35;;;;;;;5.82;100.00;99937.47;5113624;28;20074;-85
2021/10/09 00:58:59;;;;;;;;;;;;;;;5.82;100.00;99956.34;5114389;28;20043;-85
2021/10/09 01:01:28;;;;;;;17.35;9.07;;;;;;;5.79;100.00;99947.69;5113966;28;19919;-85
2021/10/09 01:03:56;;;;;;;19.75;10.32;;;;;;;5.79;100.00;99955.78;5113559;28;20047;-85
2021/10/09 01:06:22;;;;;;;18.23;9.23;;;;;;;5.64;100.00;99944.47;5113310;28;20055;-85
2021/10/09 01:08:51;;;;;;;21.27;9.50;;;;;;;5.69;100.00;99942.25;5113464;28;20423;-85
2021/10/09 01:11:18;;;;;;;18.67;10.95;;;;;;;5.62;100.00;99951.88;5115482;28;20050;-85
2021/10/09 01:13:45;;;;;;;19.48;10.73;;;;;;;5.62;100.00;99950.00;5117306;28;20051;-85
2021/10/09 01:16:19;;;;;;;26.40;11.40;;;;;;;5.55;100.00;99948.81;5117338;28;20487;-85
2021/10/09 01:18:50;;;;;;;20.85;11.48;;;;;;;5.53;100.00;99923.84;5117242;28;20092;-85
2021/10/09 01:21:19;;;;;;;20.02;10.80;;;;;;;5.68;100.00;99954.03;5117336;28;20040;-84
2021/10/09 01:23:46;;;;;;;18.05;10.48;;;;;;;5.64;100.00;99934.53;5117357;28;20066;-84
2021/10/09 01:26:14;;;;;;;17.48;10.65;;;;;;;5.48;100.00;99948.53;5117287;28;20052;-85
2021/10/09 01:28:46;;;;;;;19.45;11.05;;;;;;;5.34;100.00;99942.59;5117106;28;20074;-85
2021/10/09 01:31:15;;;;;;;21.27;10.68;;;;;;;5.50;100.00;99957.31;5117533;28;20051;-85
2021/10/09 01:33:45;;;;;;;18.80;10.43;;;;;;;5.36;100.00;99935.22;5116869;28;20040;-84
2021/10/09 01:36:12;;;;;;;;;;;;;;;5.50;100.00;99945.69;5116981;28;20043;-85
2021/10/09 01:38:42;;;;;;;18.55;9.82;;;;;;;5.34;100.00;99915.66;5109750;28;20027;-85
2021/10/09 01:41:09;;;;;;;15.65;10.05;;;;;;;5.37;100.00;99936.94;5100621;28;20044;-85
2021/10/09 01:43:36;;;;;;;20.25;10.43;;;;;;;5.36;100.00;99952.28;5116900;28;20092;-85
2021/10/09 01:46:03;;;;;;;18.58;10.57;;;;;;;5.18;100.00;99924.19;5116547;28;20138;-84
2021/10/09 01:48:31;;;;;;;19.13;10.20;;;;;;;5.27;100.00;99956.63;5116886;28;20092;-85
2021/10/09 01:50:58;;;;;;;23.75;10.70;;;;;;;5.40;100.00;99959.09;5116899;28;20077;-85
2021/10/09 01:53:25;;;;;;;22.55;10.52;;;;;;;5.14;100.00;99927.16;5116673;28;20064;-85
2021/10/09 01:55:54;;;;;;;29.40;11.07;;;;;;;5.40;100.00;99951.00;5112540;28;20101;-84
2021/10/09 01:58:21;;;;;;;17.40;9.85;;;;;;;5.30;100.00;99940.19;5116310;28;20122;-84
2021/10/09 02:00:48;;;;;;;16.60;9.77;;;;;;;5.23;100.00;99951.63;5116745;28;20050;-84
2021/10/09 02:03:18;;;;;;;17.65;9.20;;;;;;;5.16;100.00;99947.72;5116188;28;20051;-85
2021/10/09 02:05:45;;;;;;;17.65;9.90;;;;;;;5.01;100.00;99945.34;5116401;28;20510;-85
2021/10/09 02:08:13;;;;;;;19.75;10.25;;;;;;;5.01;100.00;99949.88;5116441;28;20052;-85
2021/10/09 02:10:48;;;;;;;16.63;10.02;;;;;;;5.10;100.00;99955.38;5116075;28;20051;-84
2021/10/09 02:13:20;;;;;;;17.98;9.38;;;;;;;5.00;100.00;99946.34;5116572;28;20486;-85
2021/10/09 02:15:49;;;;;;;18.33;10.05;;;;;;;5.07;100.00;99936.75;5116418;28;20500;-85
2021/10/09 02:18:34;;;;;;;16.65;10.02;;;;;;;5.12;100.00;99945.31;5115855;28;20039;-85
2021/10/09 02:26:30;;;;;;;22.88;9.75;;;;;;;4.96;100.00;99937.66;5097172;28;20090;-84
2021/10/09 02:28:58;;;;;;;16.98;9.10;;;;;;;4.95;100.00;99952.13;5116068;28;20054;-84
2021/10/09 02:31:25;;;;;;;16.15;9.32;;;;;;;4.90;100.00;99945.41;5115628;28;20491;-84
2021/10/09 02:33:52;;;;;;;18.80;10.25;;;;;;;4.84;100.00;99949.47;5115551;28;20043;-84
2021/10/09 02:36:19;;;;;;;20.90;9.60;;;;;;;4.86;100.00;99928.63;5115126;28;20064;-84
2021/10/09 02:38:46;;;;;;;20.25;10.50;;;;;;;4.85;100.00;99917.97;5115757;28;20093;-84
2021/10/09 02:41:13;;;;;;;19.88;11.02;;;;;;;4.90;100.00;99951.66;5105558;28;20048;-84
2021/10/09 02:43:40;;;;;;;19.58;10.05;;;;;;;4.56;100.00;99910.50;5113593;28;20077;-84
2021/10/09 02:46:09;;;;;;;17.60;10.32;;;;;;;4.71;100.00;99938.00;5105925;28;20407;-84
2021/10/09 02:48:37;;;;;;;17.17;10.18;;;;;;;4.57;100.00;99933.78;5112477;28;20733;-84
2021/10/09 02:51:04;;;;;;;21.20;10.63;;;;;;;4.50;100.00;99916.41;5115885;28;20051;-84
2021/10/09 02:53:31;;;;;;;21.90;10.27;;;;;;;4.61;100.00;99925.31;5115643;28;20047;-84
2021/10/09 02:55:58;;;;;;;18.10;9.73;;;;;;;4.47;100.00;99908.59;5115623;28;20380;-84
2021/10/09 02:58:24;;;;;;;20.75;10.90;;;;;;;4.47;100.00;99917.53;5115346;28;20043;-84
2021/10/09 03:00:51;;;;;;;24.88;11.13;;;;;;;4.60;100.00;99926.28;5115485;28;20040;-84
2021/10/09 03:03:20;;;;;;;19.20;11.35;;;;;;;4.57;100.00;99934.63;5115132;28;20043;-84
2021/10/09 03:05:47;;;;;;;20.92;11.30;;;;;;;4.72;100.00;99939.72;5115267;28;20047;-84
2021/10/09 03:08:14;;;;;;;18.67;10.80;;;;;;;4.38;100.00;99913.78;5107120;28;20055;-84
2021/10/09 03:10:41;;;;;;;22.52;11.52;;;;;;;4.55;100.00;99930.38;5115427;28;20479;-84
2021/10/09 03:13:08;;;;;;;19.20;10.27;;;;;;;4.42;100.00;99923.28;5115035;28;20040;-84
2021/10/09 03:15:35;;;;;;;20.10;11.40;;;;;;;4.39;100.00;99917.31;5114984;28;20055;-85
2021/10/09 03:18:02;;;;;;;20.05;11.02;;;;;;;4.49;100.00;99915.56;5115167;28;20130;-85
2021/10/09 03:20:30;;;;;;;17.27;10.50;;;;;;;4.68;100.00;99927.50;5114791;28;20058;-84
2021/10/09 03:22:57;;;;;;;20.48;10.95;;;;;;;4.58;100.00;99928.25;5114857;28;20048;-84
2021/10/09 03:25:24;;;;;;;21.10;12.07;;;;;;;4.42;100.00;99925.13;5114755;28;20048;-84
2021/10/09 03:27:51;;;;;;;20.98;10.40;;;;;;;4.39;100.00;99925.38;5114859;28;20048;-84
2021/10/09 03:30:18;;;;;;;19.90;11.20;;;;;;;4.36;100.00;99939.09;5113493;28;20058;-84
2021/10/09 03:32:45;;;;;;;18.45;10.27;;;;;;;4.42;100.00;99936.75;5107148;28;20089;-84
2021/10/09 03:35:12;;;;;;;22.25;11.50;;;;;;;4.39;100.00;99917.31;5113854;28;20472;-84
2021/10/09 03:37:41;;;;;;;19.95;11.55;;;;;;;4.47;100.00;99927.44;5114256;28;20398;-84
2021/10/09 03:40:12;;;;;;;25.02;12.25;;;;;;;4.24;100.00;99922.97;5114845;28;20138;-84
2021/10/09 03:42:43;;;;;;;22.05;10.73;;;;;;;4.29;100.00;99936.06;5102125;28;20050;-85
2021/10/09 03:45:14;;;;;;;17.67;10.40;;;;;;;4.19;100.00;99941.34;5114481;28;20093;-84
2021/10/09 03:47:54;;;;;;;19.85;10.20;;;;;;;4.17;100.00;99920.91;5114380;28;20055;-84
2021/10/09 03:50:33;;;;;;;21.25;9.25;;;;;;;4.30;100.00;99950.38;5114849;28;20047;-83
2021/10/09 03:53:00;;;;;;;18.90;10.93;;;;;;;4.28;100.00;99939.72;5114128;28;20039;-84
2021/10/09 03:55:27;;;;;;;17.15;10.07;;;;;;;4.28;100.00;99938.88;5114411;28;20355;-84
2021/10/09 03:57:54;;;;;;;20.00;11.25;;;;;;;4.31;100.00;99930.56;5114149;28;20036;-84
2021/10/09 04:00:21;;;;;;;17.48;11.00;;;;;;;4.41;100.00;99953.03;5114236;28;20058;-84
2021/10/09 04:02:48;;;;;;;22.83;11.07;;;;;;;4.28;100.00;99936.19;5114413;28;20108;-82
2021/10/09 04:05:15;;;;;;;22.83;11.02;;;;;;;4.44;100.00;99958.16;5114189;28;20055;-84
2021/10/09 04:07:42;;;;;;;19.90;12.05;;;;;;;4.23;100.00;99937.41;5114387;28;20058;-84
2021/10/09 04:10:11;;;;;;;25.60;12.52;;;;;;;4.21;100.00;99930.44;5114476;28;20403;-84
2021/10/09 04:12:38;;;;;;;19.10;10.45;;;;;;;4.17;100.00;99916.41;5093716;28;20054;-84
2021/10/09 04:15:07;;;;;;;17.08;11.15;;;;;;;4.32;100.00;99922.34;5113394;28;20043;-84
2021/10/09 04:17:35;;;;;;;21.02;11.88;;;;;;;4.31;100.00;99927.88;5114130;28;20051;-84
2021/10/09 04:20:02;;;;;;;22.05;11.40;;;;;;;4.25;100.00;99927.38;5113932;28;20051;-84
2021/10/09 04:22:29;;;;;;;20.27;11.38;;;;;;;4.28;100.00;99941.59;5114141;28;20055;-84
2021/10/09 04:24:56;;;;;;;24.38;12.30;;;;;;;4.28;100.00;99955.03;5111957;28;20043;-85
2021/10/09 04:27:24;;;;;;;23.30;11.68;;;;;;;4.08;100.00;99930.59;5098103;28;20155;-85
2021/10/09 04:29:51;;;;;;;19.67;11.38;;;;;;;4.15;100.00;99928.25;5113736;28;20466;-84
2021/10/09 04:32:18;;;;;;;21.75;10.15;;;;;;;4.17;100.00;99945.13;5113718;28;20498;-85
2021/10/09 04:34:45;;;;;;;20.85;12.30;;;;;;;4.13;100.00;99924.84;5113369;28;20043;-84
2021/10/09 04:37:12;;;;;;;27.17;12.55;;;;;;;4.21;100.00;99958.19;5113351;28;20479;-84
2021/10/09 04:39:39;;;;;;;27.17;12.25;;;;;;;4.15;100.00;99944.41;5113402;28;20101;-84
2021/10/09 04:42:06;;;;;;;17.73;9.90;;;;;;;4.14;100.00;99940.88;5114281;28;20058;-84
2021/10/09 04:44:35;;;;;;;20.73;11.25;;;;;;;4.14;100.00;99946.25;5114112;28;20407;-84
2021/10/09 04:47:02;;;;;;;21.60;11.98;;;;;;;4.10;100.00;99928.63;5114355;28;20480;-84
2021/10/09 04:49:29;;;;;;;22.42;11.18;;;;;;;4.00;100.00;99933.88;5108900;28;20496;-84
2021/10/09 04:51:56;;;;;;;19.35;11.55;;;;;;;4.01;100.00;99942.84;5118387;28;20052;-84
2021/10/09 04:54:23;;;;;;;24.75;11.25;;;;;;;4.25;100.00;99959.66;5117356;28;20039;-84
2021/10/09 04:56:50;;;;;;;26.95;12.35;;;;;;;4.23;100.00;99958.94;5117989;28;20054;-84
2021/10/09 04:59:20;;;;;;;21.45;11.88;;;;;;;4.08;100.00;99934.13;5117459;28;20092;-84
2021/10/09 05:01:48;;;;;;;19.75;11.60;;;;;;;4.07;100.00;99951.25;5118401;28;20078;-85
2021/10/09 05:04:15;;;;;;;21.20;11.80;;;;;;;4.09;100.00;99961.91;5112341;28;20483;-84
2021/10/09 05:06:42;;;;;;;22.38;11.80;;;;;;;3.92;100.00;99927.44;5097249;28;20055;-84
2021/10/09 05:09:09;;;;;;;23.70;12.00;;;;;;;4.02;100.00;99931.06;5102338;28;20059;-84
2021/10/09 05:11:40;;;;;;;21.85;12.20;;;;;;;4.06;100.00;99929.84;5107500;28;20048;-84
2021/10/09 05:14:07;;;;;;;21.38;11.77;;;;;;;3.99;100.00;99945.66;5117752;28;20047;-84
2021/10/09 05:16:37;;;;;;;19.45;10.60;;;;;;;3.88;100.00;99941.13;5114807;28;20502;-84
2021/10/09 05:19:05;;;;;;;26.65;10.38;;;;;;;3.88;100.00;99948.34;5100921;28;20101;-84
2021/10/09 05:21:34;;;;;;;23.02;10.50;;;;;;;3.87;100.00;99960.94;5117762;28;20055;-84
2021/10/09 05:24:07;;;;;;;20.43;11.70;;;;;;;3.79;100.00;99949.91;5117259;28;20047;-84
2021/10/09 05:26:38;;;;;;;25.08;10.80;;;;;;;3.90;100.00;99966.06;5116958;28;20300;-84
2021/10/09 05:29:12;;;;;;;20.23;10.82;;;;;;;3.90;100.00;99965.22;5117342;28;20059;-84
2021/10/09 05:31:39;;;;;;;18.95;10.35;;;;;;;3.78;100.00;99932.09;5117191;28;20051;-84
2021/10/09 05:34:09;;;;;;;19.25;11.18;;;;;;;3.86;100.00;99950.31;5116969;28;20051;-84
2021/10/09 05:36:36;;;;;;;23.50;11.52;;;;;;;3.93;100.00;99966.78;5116428;28;20126;-84
2021/10/09 05:39:07;;;;;;;19.20;10.60;;;;;;;3.94;100.00;99963.13;5116994;28;20415;-84
2021/10/09 05:41:34;;;;;;;22.45;10.95;;;;;;;3.97;100.00;99974.50;5117147;28;20062;-84
2021/10/09 05:44:01;;;;;;;25.25;12.23;;;;;;;3.84;100.00;99963.88;5116731;27;20059;-84
2021/10/09 05:46:28;;;;;;;25.17;11.57;;;;;;;3.95;100.00;99983.69;5117081;28;20100;-85
2021/10/09 05:48:56;;;;;;;20.25;11.90;;;;;;;3.78;100.00;99961.69;5116844;28;20407;-83
2021/10/09 05:51:28;;;;;;;18.08;11.25;;;;;;;3.89;100.00;99967.03;5116438;28;20043;-84
2021/10/09 05:54:07;;;;;;;20.40;10.63;;;;;;;3.98;100.00;99986.97;5117356;28;20078;-84
2021/10/09 05:56:50;;;;;;;28.83;10.43;;;;;;;3.84;100.00;99974.63;5107707;28;20130;-85
2021/10/09 05:59:32;;;;;;;17.30;9.68;;;;;;;3.81;100.00;99961.44;5116860;28;20052;-84
2021/10/09 06:02:14;;;;;;;22.20;11.43;;;;;;;3.77;100.00;99969.88;5111888;28;20517;-85
2021/10/09 06:43:32;;;;;;;25.00;13.95;;;;;;;4.95;100.00;99997.94;5115283;28;20062;-84
2021/10/09 06:46:33;;;;;;;30.92;14.43;;;;;;;5.13;100.00;99994.66;5115706;28;20150;-85
2021/10/09 07:00:20;;;;;;;23.23;13.95;;;;;;;5.55;100.00;100004.63;5114937;28;20120;-82
2021/10/09 07:02:47;;;;;;;29.48;15.07;;;;;;;5.55;100.00;99989.28;5095011;28;20125;-83
2021/10/09 07:05:15;;;;;;;30.42;14.98;;;;;;;5.83;100.00;100021.97;5111360;28;20055;-83
2021/10/09 07:07:50;;;;;;;25.08;13.65;;;;;;;5.88;100.00;100000.84;5115051;28;20048;-83
2021/10/09 07:10:19;;;;;;;22.83;13.88;;;;;;;6.11;100.00;100031.25;5106615;28;20044;-82
2021/10/09 07:12:48;;;;;;;33.33;14.82;;;;;;;6.19;100.00;100004.41;5115629;28;20403;-83
2021/10/09 07:15:18;;;;;;;38.67;16.00;;;;;;;6.38;100.00;100022.56;5114708;28;20086;-83
2021/10/09 07:17:46;;;;;;;31.55;15.95;;;;;;;6.64;100.00;100013.06;5114976;28;20493;-83
2021/10/09 07:20:13;;;;;;;28.33;14.45;;;;;;;6.86;100.00;100030.91;5114908;28;20043;-83
2021/10/09 07:22:42;;;;;;;26.40;14.52;;;;;;;6.98;100.00;100039.75;5114002;28;20047;-83
2021/10/09 07:25:09;;;;;;;23.92;14.48;;;;;;;6.94;100.00;100016.69;5111632;28;20055;-83
2021/10/09 07:27:36;;;;;;;33.30;15.18;;;;;;;7.07;100.00;100007.31;5115083;28;20048;-83
2021/10/09 07:30:05;;;;;;;35.25;14.10;;;;;;;7.29;100.00;100020.69;5114516;28;20153;-83
2021/10/09 07:32:34;;;;;;;31.23;15.90;;;;;;;7.34;100.00;100016.56;5109969;28;20040;-83
2021/10/09 07:35:01;;;;;;;21.75;13.98;;;;;;;7.77;100.00;100015.22;5113567;28;20065;-83
2021/10/09 07:37:28;;;;;;;26.15;15.40;;;;;;;8.04;100.00;100029.84;5113899;28;20079;-85
2021/10/09 07:39:55;;;;;;;26.20;12.73;;;;;;;8.10;100.00;100007.56;5106201;28;20131;-85
2021/10/09 07:42:23;;;;;;;22.00;12.73;;;;;;;8.36;100.00;100025.88;5113538;27;20051;-85
2021/10/09 07:44:58;;;;;;;32.03;13.38;;;;;;;8.47;100.00;100027.53;5110371;28;20059;-87
2021/10/09 07:47:33;;;;;;;29.48;13.55;;;;;;;8.50;100.00;100011.81;5107305;28;20441;-86
2021/10/09 07:50:08;;;;;;;25.83;12.35;;;;;;;8.59;99.60;100015.50;5115221;28;20070;-86
2021/10/09 07:52:35;;;;;;;29.80;13.73;;;;;;;8.67;99.44;100018.31;5113339;28;20056;-85
2021/10/09 07:55:05;;;;;;;25.75;12.05;;;;;;;8.85;97.93;100025.63;5113273;28;20134;-86
2021/10/09 07:57:35;;;;;;;27.77;12.65;;;;;;;8.86;97.59;100017.31;5111921;28;20051;-86
2021/10/09 08:00:05;;;;;;;22.23;11.82;;;;;;;8.90;97.21;100015.19;5101575;27;20051;-86
2021/10/09 08:02:35;;;;;;;25.10;11.13;;;;;;;8.88;96.32;100010.91;5114711;27;20055;-85
2021/10/09 08:05:08;;;;;;;;;;;;;;;9.12;95.92;100026.56;5113485;27;20055;-86
2021/10/09 08:07:37;;;;;;;20.83;12.02;;;;;;;9.16;96.85;100017.97;5107643;28;20018;-86
2021/10/09 08:10:07;;;;;;;28.27;12.05;;;;;;;9.12;94.32;100002.16;5114316;28;20058;-88
2021/10/09 08:12:38;;;;;;;22.75;12.30;;;;;;;9.27;94.06;100016.88;5113560;28;20104;-86
2021/10/09 08:15:13;;;;;;;19.80;11.35;;;;;;;9.30;94.83;100010.28;5113966;28;20089;-87
2021/10/09 08:17:43;;;;;;;23.50;11.88;;;;;;;9.46;94.36;100025.88;5114253;28;20502;-87
2021/10/09 08:20:24;;;;;;;18.02;10.68;;;;;;;9.56;93.94;100032.91;5114151;28;20119;-87
2021/10/09 08:22:59;;;;;;;27.23;13.07;;;;;;;9.62;91.98;100031.44;5107423;28;20566;-87
2021/10/09 08:25:57;;;;;;;26.13;12.25;;;;;;;9.65;92.06;100024.81;5112286;28;20039;-87
2021/10/09 08:40:05;;;;;;;18.85;11.55;;;;;;;10.09;90.81;100028.38;5094553;28;20403;-86
2021/10/09 08:42:33;;;;;;;26.80;11.98;;;;;;;10.00;90.44;100010.31;5087766;28;20047;-85
2021/10/09 08:45:13;;;;;;;19.10;11.00;;;;;;;10.24;90.38;100036.78;5113693;28;20521;-85
2021/10/09 08:47:58;;;;;;;25.25;13.43;;;;;;;10.18;91.44;100010.25;5110525;28;20055;-86
2021/10/09 08:57:15;;;;;;;21.33;10.80;;;;;;;10.53;88.47;100023.88;5101195;28;20473;-86
2021/10/09 08:59:57;;;;;;;20.88;11.70;;;;;;;10.55;88.21;100024.53;5113891;28;20043;-86
2021/10/09 09:02:38;;;;;;;17.05;10.50;;;;;;;10.65;87.05;100017.09;5090424;28;20418;-87
2021/10/09 09:05:39;;;;;;;21.83;10.88;;;;;;;10.76;87.05;100026.81;5107119;28;20062;-87
2021/10/09 09:08:29;;;;;;;16.70;10.18;;;;;;;10.78;86.40;100024.81;5114156;28;20422;-87
2021/10/09 09:32:50;;;;;;;31.58;11.55;;;;;;;11.29;83.77;100020.16;5114749;28;20407;-87
2021/10/09 09:39:03;;;;;;;20.95;11.23;;;;;;;11.48;83.82;100027.13;5075664;22;20056;-88
2021/10/09 09:41:48;;;;;;;24.63;11.02;;;;;;;11.45;83.05;100026.63;5087544;28;20047;-87
2021/10/09 09:44:21;;;;;;;20.15;9.38;;;;;;;11.54;82.45;100022.03;5103861;28;20097;-88
2021/10/09 09:47:09;;;;;;;21.30;10.20;;;;;;;11.74;83.26;100038.88;5116800;28;20483;-87
2021/10/09 09:49:36;;;;;;;27.15;11.15;;;;;;;11.69;81.87;100025.75;5116450;28;20055;-87
2021/10/09 09:52:13;;;;;;;17.55;10.43;;;;;;;11.76;81.98;100031.41;5116870;28;20086;-88
2021/10/09 09:54:47;;;;;;;17.90;10.63;;;;;;;11.81;82.38;100023.53;5116969;28;20112;-86
2021/10/09 10:00:49;;;;;;;28.20;9.88;;;;;;;12.06;82.39;100035.31;5095106;28;20156;-87
2021/10/09 10:03:31;;;;;;;24.98;12.10;;;;;;;11.98;79.72;100018.94;5111572;28;20044;-87
2021/10/09 10:06:05;;;;;;;27.25;9.90;;;;;;;11.93;81.65;100002.28;5096231;28;20048;-87
2021/10/09 10:08:53;;;;;;;21.20;9.90;;;;;;;12.11;82.49;100021.16;5099070;28;20155;-87
2021/10/09 10:11:28;;;;;;;22.23;10.02;;;;;;;12.23;79.46;100025.19;5097116;28;20484;-86
2021/10/09 10:14:07;;;;;;;17.15;9.52;;;;;;;12.18;81.54;100016.72;5115622;28;20644;-87
2021/10/09 10:16:43;;;;;;;20.17;9.30;;;;;;;12.27;79.16;99999.28;5116474;28;20138;-87
2021/10/09 10:19:23;;;;;;;20.25;9.52;;;;;;;12.24;78.82;100004.22;5117185;28;20062;-87
2021/10/09 10:22:04;;;;;;;21.08;9.98;;;;;;;12.26;78.53;99994.88;5116511;28;20070;-87
2021/10/09 10:24:59;;;;;;;23.15;10.65;;;;;;;12.49;78.28;100016.75;5109359;28;20480;-87
2021/10/09 10:27:42;;;;;;;21.95;9.68;;;;;;;12.48;78.78;100003.28;5100399;28;20043;-86
2021/10/09 10:30:24;;;;;;;15.63;9.35;;;;;;;12.60;78.52;100010.09;5115923;28;20142;-87
2021/10/09 10:33:43;;;;;;;17.45;8.80;;;;;;;12.68;75.78;100020.09;5116767;28;20058;-87
2021/10/09 10:36:39;;;;;;;14.90;9.10;;;;;;;12.69;77.84;100000.81;5115454;28;20054;-86
2021/10/09 10:39:09;;;;;;;14.85;8.18;;;;;;;12.86;76.06;100006.19;5116481;28;20051;-87
2021/10/09 10:41:59;;;;;;;19.15;8.80;;;;;;;12.86;73.92;100000.75;5116360;28;20040;-87
2021/10/09 10:47:57;;;;;;;18.33;8.93;;;;;;;12.85;73.19;100001.75;5093784;28;20081;-86
2021/10/09 10:51:08;;;;;;;16.38;8.00;;;;;;;13.07;72.29;100013.75;5109458;28;20069;-87
2021/10/09 10:57:31;;;;;;;29.10;9.70;;;;;;;13.26;70.47;100010.53;5098209;28;20099;-92
2021/10/09 11:00:14;;;;;;;18.45;8.07;;;;;;;13.29;72.21;100020.22;5115738;28;20071;-86
2021/10/09 11:02:48;;;;;;;19.48;8.02;;;;;;;13.45;71.82;100024.75;5115946;28;20047;-86
2021/10/09 11:05:20;;;;;;;14.63;7.78;;;;;;;13.37;70.16;100001.09;5115628;28;20535;-86
2021/10/09 11:07:47;;;;;;;13.60;7.32;;;;;;;13.50;70.16;100008.66;5116171;28;20051;-86
2021/10/09 11:10:19;;;;;;;12.13;7.18;;;;;;;13.49;67.41;100001.53;5115667;28;20048;-85
2021/10/09 11:12:59;;;;;;;16.13;7.90;;;;;;;13.53;69.04;99983.72;5116164;28;20126;-86
2021/10/09 11:15:31;;;;;;;15.02;7.55;;;;;;;13.59;67.53;99984.88;5115526;28;20090;-86
2021/10/09 11:17:59;;;;;;;16.38;7.55;;;;;;;13.54;69.09;99982.69;5109887;28;20047;-86
2021/10/09 11:20:28;;;;;;;12.40;7.70;;;;;;;13.60;67.94;99979.22;5115728;28;20116;-86
2021/10/09 11:22:59;;;;;;;13.52;7.38;;;;;;;13.75;67.19;99983.88;5116348;28;20479;-86
2021/10/09 11:25:31;;;;;;;14.95;8.07;;;;;;;13.87;67.09;99992.47;5123281;28;20043;-85
2021/10/09 11:28:01;;;;;;;17.10;7.78;;;;;;;14.03;66.79;99999.63;5105820;28;20070;-86
2021/10/09 11:30:30;;;;;;;;;;;;;;;14.08;67.35;100000.78;5121565;28;20107;-86
2021/10/09 11:32:58;;;;;;;15.13;7.72;;;;;;;14.03;67.88;99984.09;5116094;28;19951;-86
2021/10/09 11:35:37;;;;;;;14.75;7.07;;;;;;;14.29;67.92;99993.72;5114741;28;20440;-85
2021/10/09 11:38:07;;;;;;;13.68;7.55;;;;;;;14.38;68.40;99986.25;5115212;28;20051;-86
2021/10/09 11:40:42;;;;;;;14.90;7.45;;;;;;;14.53;67.02;99987.09;5114787;28;20047;-86
2021/10/09 11:43:23;;;;;;;12.25;6.95;;;;;;;14.60;65.72;99996.25;5115383;28;20052;-86
2021/10/09 11:46:08;;;;;;;16.13;6.65;;;;;;;14.49;60.98;99975.69;5114952;28;20058;-87
2021/10/09 11:54:34;;;;;;;12.70;6.63;;;;;;;14.71;59.17;99997.69;5096102;28;20055;-86
2021/10/09 11:57:04;;;;;;;14.52;6.90;;;;;;;14.81;60.05;99983.69;5114766;28;20040;-87
2021/10/09 11:59:38;;;;;;;14.93;6.75;;;;;;;15.02;60.06;99991.06;5115067;28;20082;-86
2021/10/09 12:02:11;;;;;;;9.85;6.18;;;;;;;14.92;59.07;99988.66;5114860;28;20074;-86
2021/10/09 12:04:38;;;;;;;12.35;7.15;;;;;;;14.95;60.92;99973.72;5111624;28;20074;-85
2021/10/09 12:07:09;;;;;;;11.02;5.90;;;;;;;15.14;59.38;99988.69;5114026;28;20047;-86
2021/10/09 12:09:42;;;;;;;14.48;7.30;;;;;;;15.15;58.97;99985.75;5109175;28;20131;-86
2021/10/09 12:12:26;;;;;;;11.25;6.38;;;;;;;15.08;58.67;99968.38;5113153;28;20051;-86
2021/10/09 12:14:55;;;;;;;13.80;7.07;;;;;;;15.19;58.53;99973.38;5113515;28;20056;-86
2021/10/09 12:17:35;;;;;;;12.10;6.80;;;;;;;15.21;62.24;99957.56;5114751;28;20047;-85
2021/10/09 12:20:04;;;;;;;12.73;6.82;;;;;;;15.32;57.85;99977.28;5114891;28;20412;-86
2021/10/09 12:22:41;;;;;;;18.38;7.85;;;;;;;15.39;58.94;99984.50;5113852;28;20043;-86
2021/10/09 12:25:18;;;;;;;10.43;6.50;;;;;;;15.22;60.49;99970.22;5114913;28;20398;-85
2021/10/09 12:27:53;;;;;;;12.25;6.93;;;;;;;15.42;58.98;99983.28;5105848;28;20063;-85
2021/10/09 12:30:24;;;;;;;10.45;6.65;;;;;;;15.39;59.39;99970.81;5114394;28;20071;-85
2021/10/09 12:32:58;;;;;;;15.38;7.50;;;;;;;15.33;56.71;99960.63;5113761;28;20061;-87
2021/10/09 12:35:29;;;;;;;12.15;6.40;;;;;;;15.36;57.40;99959.41;5113854;28;20050;-85
2021/10/09 12:37:58;;;;;;;14.32;7.00;;;;;;;15.31;57.65;99949.03;5113488;28;20645;-85
2021/10/09 12:40:27;;;;;;;8.57;6.35;;;;;;;15.37;57.70;99966.56;5099206;28;20059;-86
2021/10/09 12:43:00;;;;;;;14.02;6.70;;;;;;;15.44;58.09;99953.78;5101724;28;20167;-85
2021/10/09 12:45:35;;;;;;;14.60;6.55;;;;;;;15.49;57.96;99937.59;5114402;28;20067;-85
2021/10/09 12:48:02;;;;;;;10.57;7.00;;;;;;;15.52;58.41;99934.47;5113782;28;20047;-86
2021/10/09 12:50:34;;;;;;;15.30;8.18;;;;;;;15.56;59.00;99938.47;5113273;28;20509;-85
2021/10/09 12:53:04;;;;;;;14.52;7.80;;;;;;;15.58;58.24;99936.41;5113600;28;20146;-85
2021/10/09 12:55:33;;;;;;;13.40;7.50;;;;;;;15.72;58.00;99934.59;5106912;28;20052;-85
2021/10/09 12:58:02;;;;;;;12.27;6.78;;;;;;;15.70;58.71;99935.84;5100652;28;20047;-85
2021/10/09 13:00:39;;;;;;;14.25;8.05;;;;;;;15.77;58.47;99930.44;5113746;28;20492;-86
2021/10/09 13:03:09;;;;;;;12.73;6.90;;;;;;;15.68;57.62;99946.16;5113774;28;20048;-86
2021/10/09 13:05:36;;;;;;;20.13;7.07;;;;;;;15.71;57.08;99951.25;5114842;28;20074;-85
2021/10/09 13:08:05;;;;;;;12.30;6.90;;;;;;;15.51;57.74;99930.03;5117876;28;20063;-85
2021/10/09 13:10:38;;;;;;;15.43;7.30;;;;;;;15.56;57.48;99915.72;5118204;28;20047;-86
2021/10/09 13:13:06;;;;;;;13.50;6.63;;;;;;;15.75;57.03;99917.75;5117974;28;20044;-85
2021/10/09 13:15:33;;;;;;;14.90;7.18;;;;;;;15.92;58.76;99918.31;5117482;28;20683;-86
2021/10/09 13:18:03;;;;;;;15.38;6.50;;;;;;;16.02;57.71;99936.31;5117678;28;20100;-85
2021/10/09 13:20:36;;;;;;;11.05;6.88;;;;;;;15.99;57.65;99918.38;5117395;28;20047;-85
2021/10/09 13:23:07;;;;;;;16.70;8.02;;;;;;;15.84;56.64;99907.53;5101328;28;20462;-85
2021/10/09 13:25:34;;;;;;;15.35;7.95;;;;;;;15.95;57.84;99935.44;5117666;28;20069;-86
2021/10/09 13:28:11;;;;;;;14.45;7.57;;;;;;;15.73;58.99;99917.13;5117569;28;20054;-85
2021/10/09 13:30:42;;;;;;;13.85;7.97;;;;;;;15.87;58.76;99928.22;5117835;28;20054;-86
2021/10/09 13:33:12;;;;;;;20.42;7.47;;;;;;;16.03;60.12;99933.38;5117321;28;20058;-85
2021/10/09 13:35:45;;;;;;;12.48;7.40;;;;;;;15.84;58.18;99903.94;5116987;28;20052;-86